createdAt,value
2022-09-15T00:01:13.585Z,100.00
2022-09-15T00:03:41.690Z,100.00
2022-09-15T00:06:09.807Z,100.00
2022-09-15T00:08:38.041Z,100.00
2022-09-15T00:11:15.088Z,100.00
2022-09-15T00:13:42.268Z,100.00
2022-09-15T00:16:15.031Z,100.00
2022-09-15T00:18:44.304Z,100.00
2022-09-15T00:21:16.631Z,100.00
2022-09-15T00:23:44.949Z,100.00
2022-09-15T00:26:16.916Z,100.00
2022-09-15T00:28:44.554Z,100.00
2022-09-15T00:31:16.847Z,100.00
2022-09-15T00:33:47.940Z,100.00
2022-09-15T00:36:16.665Z,100.00
2022-09-15T00:38:45.282Z,100.00
2022-09-15T00:41:17.124Z,100.00
2022-09-15T00:49:13.684Z,100.00
2022-09-15T00:54:31.184Z,100.00
2022-09-15T00:57:08.337Z,100.00
2022-09-15T00:59:39.532Z,100.00
2022-09-15T01:04:52.765Z,100.00
2022-09-15T01:07:32.485Z,100.00
2022-09-15T01:10:09.372Z,100.00
2022-09-15T01:12:36.707Z,100.00
2022-09-15T01:15:05.473Z,100.00
2022-09-15T01:23:41.990Z,100.00
2022-09-15T01:34:53.989Z,100.00
2022-09-15T01:37:32.242Z,100.00
2022-09-15T01:40:02.167Z,100.00
2022-09-15T01:42:32.120Z,100.00
2022-09-15T01:45:08.811Z,100.00
2022-09-15T01:47:37.133Z,100.00
2022-09-15T01:52:48.926Z,100.00
2022-09-15T01:55:23.577Z,100.00
2022-09-15T01:57:51.071Z,100.00
2022-09-15T02:00:18.380Z,100.00
2022-09-15T02:02:54.782Z,100.00
2022-09-15T02:05:37.568Z,100.00
2022-09-15T02:08:13.690Z,100.00
2022-09-15T02:10:53.493Z,100.00
2022-09-15T02:16:24.133Z,100.00
2022-09-15T02:24:45.637Z,100.00
2022-09-15T02:27:23.054Z,100.00
2022-09-15T02:29:55.780Z,100.00
2022-09-15T02:32:26.207Z,100.00
2022-09-15T02:34:55.799Z,100.00
2022-09-15T02:37:24.240Z,100.00
2022-09-15T02:39:58.150Z,100.00
2022-09-15T02:42:28.936Z,100.00
2022-09-15T02:44:56.733Z,100.00
2022-09-15T02:47:26.033Z,100.00
2022-09-15T02:49:56.983Z,100.00
2022-09-15T02:52:24.404Z,100.00
2022-09-15T02:54:51.476Z,100.00
2022-09-15T02:57:18.551Z,100.00
2022-09-15T03:00:05.529Z,100.00
2022-09-15T03:02:32.892Z,100.00
2022-09-15T03:05:02.517Z,100.00
2022-09-15T03:07:30.087Z,100.00
2022-09-15T03:09:57.180Z,100.00
2022-09-15T03:12:25.870Z,100.00
2022-09-15T03:14:53.232Z,100.00
2022-09-15T03:17:20.672Z,100.00
2022-09-15T03:19:47.714Z,100.00
2022-09-15T03:22:14.776Z,100.00
2022-09-15T03:24:42.415Z,100.00
2022-09-15T03:27:09.484Z,100.00
2022-09-15T03:29:36.752Z,100.00
2022-09-15T03:32:04.259Z,100.00
2022-09-15T03:34:31.323Z,100.00
2022-09-15T03:36:58.339Z,100.00
2022-09-15T03:39:25.445Z,100.00
2022-09-15T03:41:52.633Z,100.00
2022-09-15T03:44:20.157Z,100.00
2022-09-15T03:46:47.255Z,100.00
2022-09-15T03:49:14.327Z,100.00
2022-09-15T03:51:42.045Z,100.00
2022-09-15T03:54:09.292Z,100.00
2022-09-15T03:56:36.919Z,100.00
2022-09-15T03:59:05.691Z,100.00
2022-09-15T04:01:33.639Z,100.00
2022-09-15T04:04:01.913Z,100.00
2022-09-15T04:06:29.563Z,100.00
2022-09-15T04:08:57.875Z,100.00
2022-09-15T04:11:25.085Z,100.00
2022-09-15T04:13:53.621Z,100.00
2022-09-15T04:16:23.872Z,100.00
2022-09-15T04:18:54.028Z,100.00
2022-09-15T04:21:25.516Z,100.00
2022-09-15T04:23:53.943Z,100.00
2022-09-15T04:26:29.945Z,100.00
2022-09-15T04:29:04.230Z,100.00
2022-09-15T04:31:33.648Z,100.00
2022-09-15T04:34:01.374Z,100.00
2022-09-15T04:36:29.513Z,100.00
2022-09-15T04:38:58.170Z,100.00
2022-09-15T04:41:26.931Z,100.00
2022-09-15T04:43:54.589Z,100.00
2022-09-15T04:46:21.907Z,100.00
2022-09-15T04:48:49.318Z,100.00
2022-09-15T04:51:21.354Z,100.00
2022-09-15T04:53:49.433Z,100.00
2022-09-15T04:56:20.743Z,100.00
2022-09-15T04:58:51.839Z,100.00
2022-09-15T05:01:26.595Z,100.00
2022-09-15T05:03:54.664Z,100.00
2022-09-15T05:06:26.819Z,100.00
2022-09-15T05:08:57.081Z,100.00
2022-09-15T05:11:25.494Z,100.00
2022-09-15T05:13:53.379Z,100.00
2022-09-15T05:16:24.405Z,100.00
2022-09-15T05:18:54.134Z,100.00
2022-09-15T05:21:22.934Z,100.00
2022-09-15T05:23:51.899Z,100.00
2022-09-15T05:26:23.246Z,100.00
2022-09-15T05:28:50.656Z,100.00
2022-09-15T05:31:25.283Z,100.00
2022-09-15T05:33:53.224Z,100.00
2022-09-15T05:36:24.991Z,100.00
2022-09-15T05:38:53.901Z,100.00
2022-09-15T05:41:46.640Z,100.00
2022-09-15T05:44:14.053Z,100.00
2022-09-15T05:46:41.100Z,100.00
2022-09-15T05:49:08.754Z,100.00
2022-09-15T05:51:36.410Z,100.00
2022-09-15T05:54:03.654Z,100.00
2022-09-15T05:56:31.200Z,100.00
2022-09-15T05:58:58.458Z,100.00
2022-09-15T06:01:29.856Z,100.00
2022-09-15T06:03:58.421Z,100.00
2022-09-15T06:06:26.366Z,100.00
2022-09-15T06:08:58.790Z,100.00
2022-09-15T06:11:30.120Z,100.00
2022-09-15T06:14:03.300Z,100.00
2022-09-15T06:16:34.938Z,100.00
2022-09-15T06:19:03.252Z,100.00
2022-09-15T06:21:32.621Z,100.00
2022-09-15T06:24:03.775Z,100.00
2022-09-15T06:26:30.879Z,100.00
2022-09-15T06:29:02.143Z,100.00
2022-09-15T06:31:32.431Z,100.00
2022-09-15T06:34:01.018Z,100.00
2022-09-15T06:36:30.267Z,100.00
2022-09-15T06:39:00.788Z,100.00
2022-09-15T06:41:52.413Z,100.00
2022-09-15T06:44:20.543Z,100.00
2022-09-15T06:46:48.460Z,100.00
2022-09-15T06:49:15.961Z,100.00
2022-09-15T06:51:43.148Z,100.00
2022-09-15T06:54:10.911Z,100.00
2022-09-15T06:56:38.551Z,100.00
2022-09-15T06:59:05.782Z,100.00
2022-09-15T07:01:33.418Z,100.00
2022-09-15T07:04:02.709Z,100.00
2022-09-15T07:06:32.557Z,100.00
2022-09-15T07:09:02.335Z,100.00
2022-09-15T07:11:30.786Z,100.00
2022-09-15T07:13:58.264Z,100.00
2022-09-15T07:16:26.094Z,100.00
2022-09-15T07:18:57.062Z,100.00
2022-09-15T07:21:24.694Z,100.00
2022-09-15T07:23:52.280Z,100.00
2022-09-15T07:26:23.812Z,100.00
2022-09-15T07:28:57.065Z,100.00
2022-09-15T07:31:31.105Z,100.00
2022-09-15T07:34:00.936Z,100.00
2022-09-15T07:36:28.904Z,100.00
2022-09-15T07:38:56.115Z,100.00
2022-09-15T07:41:28.527Z,100.00
2022-09-15T07:43:59.065Z,100.00
2022-09-15T07:46:31.259Z,100.00
2022-09-15T07:48:58.895Z,100.00
2022-09-15T07:51:26.812Z,100.00
2022-09-15T07:53:54.560Z,100.00
2022-09-15T07:56:23.879Z,100.00
2022-09-15T07:58:51.804Z,100.00
2022-09-15T08:01:26.194Z,100.00
2022-09-15T08:03:53.960Z,100.00
2022-09-15T08:06:25.106Z,100.00
2022-09-15T08:08:57.769Z,100.00
2022-09-15T08:11:27.857Z,100.00
2022-09-15T08:13:55.281Z,100.00
2022-09-15T08:16:24.552Z,100.00
2022-09-15T08:18:54.007Z,100.00
2022-09-15T08:21:22.983Z,100.00
2022-09-15T08:23:52.930Z,100.00
2022-09-15T08:26:21.070Z,100.00
2022-09-15T08:28:49.346Z,100.00
2022-09-15T08:31:17.651Z,100.00
2022-09-15T08:33:51.286Z,100.00
2022-09-15T08:36:19.114Z,100.00
2022-09-15T08:38:47.185Z,100.00
2022-09-15T08:41:23.748Z,100.00
2022-09-15T08:46:38.772Z,100.00
2022-09-15T08:52:10.385Z,100.00
2022-09-15T08:54:38.878Z,100.00
2022-09-15T08:57:11.061Z,100.00
2022-09-15T08:59:40.070Z,100.00
2022-09-15T09:23:49.485Z,100.00
2022-09-15T09:26:16.650Z,100.00
2022-09-15T09:29:05.365Z,100.00
2022-09-15T09:31:36.208Z,100.00
2022-09-15T09:34:31.814Z,100.00
2022-09-15T09:37:09.478Z,100.00
2022-09-15T09:39:36.651Z,100.00
2022-09-15T09:42:06.050Z,100.00
2022-09-15T09:44:34.335Z,100.00
2022-09-15T09:47:02.424Z,100.00
2022-09-15T09:49:34.942Z,100.00
2022-09-15T09:52:04.512Z,100.00
2022-09-15T09:54:34.024Z,100.00
2022-09-15T09:57:28.990Z,100.00
2022-09-15T09:59:56.595Z,100.00
2022-09-15T10:02:28.054Z,100.00
2022-09-15T10:05:19.262Z,100.00
2022-09-15T10:07:47.378Z,100.00
2022-09-15T10:10:23.223Z,100.00
2022-09-15T10:12:55.643Z,100.00
2022-09-15T10:15:31.794Z,100.00
2022-09-15T10:18:01.705Z,100.00
2022-09-15T10:20:35.566Z,100.00
2022-09-15T10:23:26.921Z,100.00
2022-09-15T10:29:17.000Z,100.00
2022-09-15T10:31:45.644Z,100.00
2022-09-15T10:34:30.926Z,100.00
2022-09-15T10:39:55.178Z,100.00
2022-09-15T10:59:13.031Z,100.00
2022-09-15T11:07:30.441Z,100.00
2022-09-15T11:21:44.344Z,100.00
2022-09-15T11:27:28.598Z,100.00
2022-09-15T11:33:12.834Z,100.00
2022-09-15T11:36:00.807Z,100.00
2022-09-15T11:41:33.578Z,100.00
2022-09-15T11:53:32.027Z,100.00
2022-09-15T11:59:31.946Z,100.00
2022-09-15T12:07:54.494Z,100.00
2022-09-15T12:10:30.218Z,100.00
2022-09-15T12:13:00.629Z,100.00
2022-09-15T12:15:28.393Z,100.00
2022-09-15T12:23:43.652Z,100.00
2022-09-15T12:28:58.316Z,100.00
2022-09-15T12:39:29.003Z,100.00
2022-09-15T12:42:08.643Z,100.00
2022-09-15T12:44:44.817Z,100.00
2022-09-15T12:47:29.827Z,100.00
2022-09-15T12:50:04.640Z,100.00
2022-09-15T12:52:43.973Z,100.00
2022-09-15T12:55:22.523Z,100.00
2022-09-15T12:57:56.883Z,100.00
2022-09-15T13:11:45.971Z,100.00
2022-09-15T13:17:04.166Z,100.00
2022-09-15T13:27:44.065Z,100.00
2022-09-15T13:36:26.601Z,100.00
2022-09-15T13:53:34.441Z,86.13
2022-09-15T13:56:08.881Z,85.09
2022-09-15T14:01:25.721Z,75.79
2022-09-15T14:03:59.611Z,70.36
2022-09-15T14:06:35.495Z,78.04
2022-09-15T14:09:14.985Z,72.33
2022-09-15T14:11:44.229Z,71.31
2022-09-15T14:17:25.273Z,68.81
2022-09-15T14:19:56.481Z,72.33
2022-09-15T14:22:32.076Z,74.96
2022-09-15T14:25:06.251Z,66.99
2022-09-15T14:27:36.279Z,65.82
2022-09-15T14:30:08.620Z,61.91
2022-09-15T14:32:43.090Z,59.18
2022-09-15T14:35:19.948Z,59.66
2022-09-15T14:37:55.026Z,52.02
2022-09-15T14:43:22.141Z,45.10
2022-09-15T14:45:57.239Z,45.54
2022-09-15T14:48:29.979Z,41.51
2022-09-15T14:51:03.019Z,43.10
2022-09-15T14:53:35.834Z,41.15
2022-09-15T14:56:09.979Z,41.67
2022-09-15T15:09:56.450Z,40.71
2022-09-15T15:12:44.214Z,38.98
2022-09-15T15:15:14.425Z,37.77
2022-09-15T15:17:49.884Z,38.80
2022-09-15T15:20:24.017Z,35.90
2022-09-15T15:23:29.153Z,36.71
2022-09-15T15:26:36.941Z,35.18
2022-09-15T15:29:09.273Z,34.54
2022-09-15T15:31:40.276Z,37.33
2022-09-15T15:34:25.006Z,36.90
2022-09-15T15:37:02.216Z,40.02
2022-09-15T15:39:29.547Z,41.59
2022-09-15T15:42:16.159Z,43.56
2022-09-15T15:45:20.424Z,47.57
2022-09-15T15:47:48.014Z,52.12
2022-09-15T15:50:21.135Z,50.85
2022-09-15T15:52:49.898Z,53.26
2022-09-15T15:57:58.447Z,50.24
2022-09-15T16:03:25.679Z,45.39
2022-09-15T16:05:58.620Z,41.77
2022-09-15T16:08:39.693Z,42.91
2022-09-15T16:11:11.926Z,42.15
2022-09-15T16:13:39.748Z,42.29
2022-09-15T16:16:19.555Z,42.21
2022-09-15T16:18:47.519Z,46.61
2022-09-15T16:21:22.193Z,48.00
2022-09-15T16:23:49.645Z,50.87
2022-09-15T16:26:21.795Z,51.26
2022-09-15T16:28:49.654Z,54.65
2022-09-15T16:31:17.385Z,58.52
2022-09-15T16:33:45.403Z,62.01
2022-09-15T16:36:15.837Z,62.08
2022-09-15T16:38:43.717Z,64.81
2022-09-15T16:43:56.347Z,68.54
2022-09-15T16:46:24.213Z,70.99
2022-09-15T16:48:51.662Z,73.62
2022-09-15T16:51:28.932Z,76.45
2022-09-15T16:53:58.377Z,73.60
2022-09-15T16:56:26.932Z,76.49
2022-09-15T16:58:59.013Z,78.33
2022-09-15T17:01:26.977Z,78.16
2022-09-15T17:03:54.576Z,80.97
2022-09-15T17:06:22.404Z,82.29
2022-09-15T17:08:50.030Z,85.71
2022-09-15T17:11:20.056Z,81.68
2022-09-15T17:13:48.088Z,84.20
2022-09-15T17:16:19.677Z,85.99
2022-09-15T17:18:50.784Z,84.89
2022-09-15T17:21:19.679Z,84.47
2022-09-15T17:23:51.663Z,85.62
2022-09-15T17:26:27.641Z,87.78
2022-09-15T17:28:58.919Z,88.02
2022-09-15T17:31:26.344Z,89.55
2022-09-15T17:33:53.572Z,88.57
2022-09-15T17:36:20.865Z,85.69
2022-09-15T17:38:49.221Z,84.83
2022-09-15T17:41:22.306Z,88.69
2022-09-15T17:43:49.514Z,89.79
2022-09-15T17:46:16.979Z,86.10
2022-09-15T17:48:44.354Z,87.63
2022-09-15T17:51:17.983Z,89.80
2022-09-15T17:53:47.276Z,92.01
2022-09-15T17:56:14.614Z,93.90
2022-09-15T17:58:42.573Z,96.55
2022-09-15T18:01:13.753Z,95.24
2022-09-15T18:03:44.603Z,97.67
2022-09-15T18:06:12.422Z,100.00
2022-09-15T18:08:40.694Z,100.00
2022-09-15T18:11:08.282Z,98.42
2022-09-15T18:13:38.897Z,100.00
2022-09-15T18:16:12.353Z,98.84
2022-09-15T18:18:40.927Z,98.91
2022-09-15T18:21:12.965Z,99.49
2022-09-15T18:23:42.290Z,100.00
2022-09-15T18:26:09.458Z,100.00
2022-09-15T18:28:37.108Z,100.00
2022-09-15T18:31:04.466Z,100.00
2022-09-15T18:33:31.570Z,100.00
2022-09-15T18:35:59.023Z,100.00
2022-09-15T18:38:26.189Z,100.00
2022-09-15T18:40:56.229Z,100.00
2022-09-15T18:43:26.348Z,100.00
2022-09-15T18:45:59.322Z,100.00
2022-09-15T18:48:27.358Z,100.00
2022-09-15T18:50:54.999Z,100.00
2022-09-15T18:53:22.741Z,100.00
2022-09-15T18:55:50.121Z,100.00
2022-09-15T18:58:19.127Z,100.00
2022-09-15T19:00:46.734Z,100.00
2022-09-15T19:03:14.334Z,100.00
2022-09-15T19:05:42.258Z,100.00
2022-09-15T19:08:10.870Z,100.00
2022-09-15T19:10:40.765Z,100.00
2022-09-15T19:13:09.883Z,100.00
2022-09-15T19:15:40.310Z,100.00
2022-09-15T19:18:07.879Z,100.00
2022-09-15T19:20:42.040Z,100.00
2022-09-15T19:23:09.632Z,100.00
2022-09-15T19:25:37.061Z,100.00
2022-09-15T19:28:04.225Z,100.00
2022-09-15T19:30:31.557Z,100.00
2022-09-15T19:32:58.732Z,100.00
2022-09-15T19:35:25.854Z,100.00
2022-09-15T19:37:52.943Z,100.00
2022-09-15T19:40:20.684Z,100.00
2022-09-15T19:42:50.107Z,100.00
2022-09-15T19:45:43.617Z,100.00
2022-09-15T19:48:11.070Z,100.00
2022-09-15T19:50:44.018Z,100.00
2022-09-15T19:53:11.464Z,100.00
2022-09-15T19:55:38.963Z,100.00
2022-09-15T19:58:06.035Z,100.00
2022-09-15T20:00:33.179Z,100.00
2022-09-15T20:03:00.570Z,100.00
2022-09-15T20:05:27.882Z,100.00
2022-09-15T20:07:55.114Z,100.00
2022-09-15T20:10:22.179Z,100.00
2022-09-15T20:12:49.302Z,100.00
2022-09-15T20:15:16.828Z,100.00
2022-09-15T20:17:44.090Z,100.00
2022-09-15T20:20:11.815Z,100.00
2022-09-15T20:22:39.185Z,100.00
2022-09-15T20:25:06.851Z,100.00
2022-09-15T20:27:33.928Z,100.00
2022-09-15T20:30:01.211Z,100.00
2022-09-15T20:32:29.390Z,100.00
2022-09-15T20:34:56.736Z,100.00
2022-09-15T20:37:23.873Z,100.00
2022-09-15T20:39:51.379Z,100.00
2022-09-15T20:42:18.793Z,100.00
2022-09-15T20:44:45.889Z,100.00
2022-09-15T20:47:13.012Z,100.00
2022-09-15T20:49:40.144Z,100.00
2022-09-15T20:52:07.597Z,100.00
2022-09-15T20:54:35.546Z,100.00
2022-09-15T20:57:02.649Z,100.00
2022-09-15T20:59:29.763Z,100.00
2022-09-15T21:01:56.847Z,100.00
2022-09-15T21:04:23.943Z,100.00
2022-09-15T21:06:51.258Z,100.00
2022-09-15T21:09:19.124Z,100.00
2022-09-15T21:11:50.134Z,100.00
2022-09-15T21:14:19.827Z,100.00
2022-09-15T21:16:47.198Z,100.00
2022-09-15T21:19:15.000Z,100.00
2022-09-15T21:21:42.288Z,100.00
2022-09-15T21:24:09.611Z,100.00
2022-09-15T21:27:00.101Z,100.00
2022-09-15T21:29:28.485Z,100.00
2022-09-15T21:31:56.334Z,100.00
2022-09-15T21:34:24.192Z,100.00
2022-09-15T21:36:53.375Z,100.00
2022-09-15T21:39:21.384Z,100.00
2022-09-15T21:41:49.708Z,100.00
2022-09-15T21:44:16.895Z,100.00
2022-09-15T21:46:46.770Z,100.00
2022-09-15T21:49:14.684Z,100.00
2022-09-15T21:51:41.780Z,100.00
2022-09-15T21:54:10.016Z,100.00
2022-09-15T21:56:37.764Z,100.00
2022-09-15T21:59:05.683Z,100.00
2022-09-15T22:01:33.229Z,100.00
2022-09-15T22:04:04.135Z,100.00
2022-09-15T22:06:34.830Z,100.00
2022-09-15T22:09:06.913Z,100.00
2022-09-15T22:11:35.459Z,100.00
2022-09-15T22:14:07.919Z,100.00
2022-09-15T22:16:38.289Z,100.00
2022-09-15T22:19:07.129Z,100.00
2022-09-15T22:21:37.031Z,100.00
2022-09-15T22:24:07.082Z,100.00
2022-09-15T22:26:36.996Z,100.00
2022-09-15T22:29:05.859Z,100.00
2022-09-15T22:31:35.519Z,100.00
2022-09-15T22:34:03.800Z,100.00
2022-09-15T22:36:31.878Z,100.00
2022-09-15T22:39:05.501Z,100.00
2022-09-15T22:41:36.910Z,100.00
2022-09-15T22:44:06.340Z,100.00
2022-09-15T22:46:34.192Z,100.00
2022-09-15T22:49:01.927Z,100.00
2022-09-15T22:51:29.822Z,100.00
2022-09-15T22:53:57.745Z,100.00
2022-09-15T22:56:26.248Z,100.00
2022-09-15T22:58:58.422Z,100.00
2022-09-15T23:01:28.765Z,100.00
2022-09-15T23:04:00.018Z,100.00
2022-09-15T23:06:31.399Z,100.00
2022-09-15T23:09:02.337Z,100.00
2022-09-15T23:11:33.098Z,100.00
2022-09-15T23:14:01.390Z,100.00
2022-09-15T23:16:30.560Z,100.00
2022-09-15T23:18:58.431Z,100.00
2022-09-15T23:21:25.984Z,100.00
2022-09-15T23:23:54.809Z,100.00
2022-09-15T23:26:24.332Z,100.00
2022-09-15T23:28:52.579Z,100.00
2022-09-15T23:31:20.591Z,100.00
2022-09-15T23:33:48.802Z,100.00
2022-09-15T23:36:19.654Z,100.00
2022-09-15T23:38:48.010Z,100.00
2022-09-15T23:41:19.370Z,100.00
2022-09-15T23:43:47.127Z,100.00
2022-09-15T23:46:14.736Z,100.00
2022-09-15T23:48:43.046Z,100.00
2022-09-15T23:51:10.563Z,100.00
2022-09-15T23:53:37.970Z,100.00
2022-09-15T23:56:05.639Z,100.00
2022-09-15T23:58:32.903Z,100.00
